John H Macmillan Jr — WDB9907 — position and weather

sailwx.info

Track history (hours):
 
Tides and Currents Weather Stations Pressure Air Temp Water Temp Dewpoint Dewpoint Depression Visibility Wind Speed Wind Dir Waves Ship Positions

John H Macmillan Jr

Owner: American River Transportation Company, St Louis, MO. More information available from US FCC via Universal Licensing System and Coast Guard Vessel Documentation Center.

Last reported at 2016-Jun-15 15:33 UTC. Time now 2016-Jun-30 23:17 UTC.
Position N 32°40' W 091°08'.
Warning: this ship's position is 15 days out of date.

Length 55 m.

Type: Towing. MMSI: 366984920.

Date/timePositionNaut miles runAvg speedWind from/ knotsBaromVisibWave heightAir tempDewpointWater temp
2016-Jun-15 15:33N 32°40' W 091°08'4 4.3
2016-Jun-15 14:33N 32°36' W 091°08'3 2.7
2016-Jun-15 13:33N 32°34' W 091°06'4 4.0
2016-Jun-15 12:33N 32°30' W 091°07'4 4.3
2016-Jun-15 11:33N 32°27' W 091°04'4 4.4
2016-Jun-15 10:33N 32°24' W 090°59'3 3.2
2016-Jun-15 09:33N 32°21' W 090°58'4 3.8
2016-Jun-15 08:33N 32°20' W 090°54'3 2.5
2016-Jun-15 07:33N 32°18' W 090°56'0 0.0
2016-Jun-15 06:33N 32°18' W 090°56'0 0.0
2016-Jun-15 05:33N 32°18' W 090°56'4 3.6
2016-Jun-15 04:33N 32°15' W 090°59'5 4.8
2016-Jun-15 03:33N 32°10' W 091°00'4 3.6
2016-Jun-15 02:33N 32°07' W 091°02'3 3.4
2016-Jun-15 01:33N 32°07' W 091°06'5 4.9
2016-Jun-15 00:33N 32°02' W 091°04'6 4.8
2016-Jun-14 23:12N 31°59' W 091°10'4 5.5
2016-Jun-14 22:29N 31°55' W 091°12'9 4.6
2016-Jun-14 20:29N 31°50' W 091°21'  
2016-Jun-11 04:17N 31°58' W 091°11'5 7.5
2016-Jun-11 03:33N 32°00' W 091°05'7 7.1
2016-Jun-11 02:33N 32°07' W 091°07'5 5.3
2016-Jun-11 01:33N 32°08' W 091°00'8 8.1
2016-Jun-11 00:33N 32°16' W 090°58'5 5.2
2016-Jun-10 23:33N 32°21' W 090°55'6 6.2
2016-Jun-10 22:33N 32°25' W 091°00'8 7.5
2016-Jun-10 21:33N 32°30' W 091°07'7 7.2
2016-Jun-10 20:33N 32°37' W 091°09'  
Track history (hours):
 
Tides and Currents Weather Stations Pressure Air Temp Water Temp Dewpoint Dewpoint Depression Visibility Wind Speed Wind Dir Waves Ship Positions

John H Macmillan Jr

Owner: American River Transportation Company, St Louis, MO. More information available from US FCC via Universal Licensing System and Coast Guard Vessel Documentation Center.

Last reported at 2016-Jun-15 15:33 UTC. Time now 2016-Jun-30 23:17 UTC.
Position N 32°40' W 091°08'.
Warning: this ship's position is 15 days out of date.

Length 55 m.

Type: Towing. MMSI: 366984920.

Date/timePositionNaut miles runAvg speedWind from/ knotsBaromVisibWave heightAir tempDewpointWater temp
2016-Jun-15 15:33N 32°40' W 091°08'4 4.3
2016-Jun-15 14:33N 32°36' W 091°08'3 2.7
2016-Jun-15 13:33N 32°34' W 091°06'4 4.0
2016-Jun-15 12:33N 32°30' W 091°07'4 4.3
2016-Jun-15 11:33N 32°27' W 091°04'4 4.4
2016-Jun-15 10:33N 32°24' W 090°59'3 3.2
2016-Jun-15 09:33N 32°21' W 090°58'4 3.8
2016-Jun-15 08:33N 32°20' W 090°54'3 2.5
2016-Jun-15 07:33N 32°18' W 090°56'0 0.0
2016-Jun-15 06:33N 32°18' W 090°56'0 0.0
2016-Jun-15 05:33N 32°18' W 090°56'4 3.6
2016-Jun-15 04:33N 32°15' W 090°59'5 4.8
2016-Jun-15 03:33N 32°10' W 091°00'4 3.6
2016-Jun-15 02:33N 32°07' W 091°02'3 3.4
2016-Jun-15 01:33N 32°07' W 091°06'5 4.9
2016-Jun-15 00:33N 32°02' W 091°04'6 4.8
2016-Jun-14 23:12N 31°59' W 091°10'4 5.5
2016-Jun-14 22:29N 31°55' W 091°12'9 4.6
2016-Jun-14 20:29N 31°50' W 091°21'  
2016-Jun-11 04:17N 31°58' W 091°11'5 7.5
2016-Jun-11 03:33N 32°00' W 091°05'7 7.1
2016-Jun-11 02:33N 32°07' W 091°07'5 5.3
2016-Jun-11 01:33N 32°08' W 091°00'8 8.1
2016-Jun-11 00:33N 32°16' W 090°58'5 5.2
2016-Jun-10 23:33N 32°21' W 090°55'6 6.2
2016-Jun-10 22:33N 32°25' W 091°00'8 7.5
2016-Jun-10 21:33N 32°30' W 091°07'7 7.2
2016-Jun-10 20:33N 32°37' W 091°09'  

Dump ship's entire track history